Terminal Aerodrome Forecast
Issued by NWS Corpus Christi, TX

Home | Current Version | Previous Version | Text Only | Print | Product List | Glossary On
Versions: 1 2 3 4 5 6 7 8 9 10 11 12 13 14 15 16 17
000
FTUS44 KCRP 231700
TAFCRP
TAF
KCRP 231727Z 2318/2418 08014KT P6SM SCT030 BKN250
     FM240400 08006KT P6SM FEW020 SCT250
     FM240900 06004KT P6SM SCT020 SCT250=

USA.gov is the U.S. government's official web portal to all federal, state and local government web resources and services.